Time;durP1;ratioP1;P1;durP2;ratioP2;P2;SDS_P1;SDS_P2;PMS_P1;PMS_P2;Temp;Humidity;BMP_temperature;BMP_pressure;BME280_temperature;BME280_humidity;BME280_pressure;Samples;Min_cycle;Max_cycle;Signal;HPM_P1;HPM_P2
2023/07/26 00:00:16;;;;;;;0.30;0.30;;;25.90;60.50;;;26.42;44.30;93917.44;5076908;28;20204;-38
2023/07/26 00:02:43;;;;;;;0.30;0.30;;;25.90;60.50;;;26.40;44.40;93930.38;5075915;28;20189;-37
2023/07/26 00:05:10;;;;;;;0.40;0.40;;;25.90;60.40;;;26.39;43.81;93931.50;5076752;28;20184;-37
2023/07/26 00:07:37;;;;;;;0.30;0.30;;;25.80;60.50;;;26.39;44.36;93928.03;5076388;28;20226;-37
2023/07/26 00:10:05;;;;;;;0.30;0.30;;;25.80;60.50;;;26.39;44.43;93933.41;5058760;28;20290;-39
2023/07/26 00:12:32;;;;;;;0.30;0.30;;;25.80;61.50;;;26.38;44.36;93935.31;5076617;28;20194;-39
2023/07/26 00:14:59;;;;;;;0.30;0.30;;;25.80;61.50;;;26.37;44.39;93926.44;5076293;28;20659;-39
2023/07/26 00:17:26;;;;;;;0.35;0.35;;;25.80;60.60;;;26.39;44.31;93917.25;5074770;28;20641;-37
2023/07/26 00:19:53;;;;;;;0.30;0.30;;;25.80;60.70;;;26.36;44.23;93919.47;5076082;28;20201;-37
2023/07/26 00:22:21;;;;;;;0.40;0.40;;;25.80;60.60;;;26.34;44.36;93913.63;5075292;28;20689;-41
2023/07/26 00:24:48;;;;;;;0.30;0.30;;;25.80;60.60;;;26.34;44.36;93910.16;5075648;28;20200;-40
2023/07/26 00:27:17;;;;;;;0.38;0.38;;;25.80;60.70;;;26.33;44.15;93909.38;5075576;28;20452;-39
2023/07/26 00:29:44;;;;;;;0.30;0.30;;;25.80;60.60;;;26.31;44.26;93908.09;5074769;28;20533;-38
2023/07/26 00:32:11;;;;;;;0.30;0.30;;;25.80;60.70;;;26.31;44.72;93910.78;5075881;28;20193;-37
2023/07/26 00:34:38;;;;;;;0.40;0.40;;;25.80;60.70;;;26.31;44.17;93913.47;5076196;28;20216;-38
2023/07/26 00:37:06;;;;;;;0.28;0.28;;;25.80;60.80;;;26.29;44.23;93915.69;5075731;28;20193;-39
2023/07/26 00:39:35;;;;;;;0.30;0.30;;;25.80;60.80;;;26.28;44.54;93917.59;5075733;28;20256;-37
2023/07/26 00:42:02;;;;;;;0.50;0.50;;;25.80;60.90;;;26.28;44.70;93922.16;5075063;28;20207;-38
2023/07/26 00:44:29;;;;;;;0.30;0.30;;;25.70;60.70;;;26.28;44.42;93924.84;5075404;28;20232;-38
2023/07/26 00:46:56;;;;;;;0.30;0.30;;;25.80;60.90;;;26.27;44.84;93925.94;5076421;28;20287;-38
2023/07/26 00:49:24;;;;;;;0.30;0.30;;;25.80;60.90;;;26.24;44.49;93922.00;5075833;28;20199;-41
2023/07/26 00:51:53;;;;;;;0.40;0.40;;;25.70;60.80;;;26.26;44.72;93929.78;5075553;28;20196;-41
2023/07/26 00:54:21;;;;;;;0.40;0.40;;;25.80;61.00;;;26.25;44.88;93939.72;5074995;28;20219;-41
2023/07/26 00:56:49;;;;;;;0.30;0.30;;;25.70;61.00;;;26.25;44.81;93942.41;5074063;28;20292;-42
2023/07/26 00:59:16;;;;;;;0.30;0.30;;;25.70;60.80;;;26.25;44.48;93950.47;5057345;28;20227;-41
2023/07/26 01:01:43;;;;;;;0.40;0.40;;;25.80;61.00;;;26.23;44.39;93947.28;5074162;28;20230;-40
2023/07/26 01:04:10;;;;;;;0.50;0.50;;;25.80;61.10;;;26.24;44.76;93961.53;5056968;28;20260;-41
2023/07/26 01:07:01;;;;;;;0.30;0.30;;;25.70;60.90;;;26.20;44.43;93961.38;5074323;28;20208;-43
2023/07/26 01:09:43;;;;;;;0.30;0.30;;;25.70;61.00;;;26.18;44.60;93964.38;5073958;28;20188;-42
2023/07/26 01:12:22;;;;;;;0.30;0.30;;;25.70;61.00;;;26.17;44.49;93957.41;5057361;28;20219;-41
2023/07/26 01:15:02;;;;;;;0.30;0.30;;;25.70;61.10;;;26.15;44.97;93969.59;5074828;28;20215;-41
2023/07/26 01:17:30;;;;;;;0.30;0.30;;;25.70;61.10;;;26.15;44.78;93974.97;5073837;28;20200;-41
2023/07/26 01:19:57;;;;;;;0.30;0.30;;;25.70;61.10;;;26.15;44.82;93972.28;5074838;28;20290;-40
2023/07/26 01:22:24;;;;;;;0.40;0.40;;;25.70;61.10;;;26.14;45.40;93968.00;5073882;28;20199;-41
2023/07/26 01:24:52;;;;;;;0.40;0.40;;;25.70;61.30;;;26.12;45.27;93952.22;5074902;28;20218;-42
2023/07/26 01:27:19;;;;;;;0.30;0.30;;;25.70;61.30;;;26.13;45.12;93952.97;5074764;28;20199;-42
2023/07/26 01:29:50;;;;;;;0.30;0.30;;;25.60;61.20;;;26.12;44.97;93944.16;5074581;28;20289;-41
2023/07/26 01:32:20;;;;;;;0.30;0.30;;;25.60;61.20;;;26.12;45.48;93946.03;5075005;28;20185;-43
2023/07/26 01:34:49;;;;;;;0.50;0.50;;;25.60;61.30;;;26.12;45.17;93948.72;5074765;28;20532;-41
2023/07/26 01:37:19;;;;;;;0.32;0.32;;;25.60;61.20;;;26.10;45.23;93951.72;5074044;28;20190;-42
2023/07/26 01:39:48;;;;;;;0.30;0.30;;;25.60;61.30;;;26.08;45.38;93948.53;5073732;28;20182;-42
2023/07/26 01:42:15;;;;;;;0.60;0.60;;;25.60;61.20;;;26.08;45.25;93945.84;5074906;28;20244;-42
2023/07/26 01:44:42;;;;;;;0.30;0.30;;;25.60;61.30;;;26.07;45.14;93946.97;5073769;28;20239;-41
2023/07/26 01:47:09;;;;;;;0.40;0.40;;;25.60;61.30;;;26.07;45.23;93943.50;5074793;28;20686;-41
2023/07/26 01:49:37;;;;;;;0.30;0.30;;;25.60;61.40;;;26.06;45.49;93945.34;5074482;28;20658;-41
2023/07/26 01:52:05;;;;;;;0.30;0.30;;;25.60;61.40;;;26.04;45.55;93945.66;5074548;28;20192;-41
2023/07/26 01:54:32;;;;;;;0.30;0.30;;;25.60;61.50;;;26.05;45.24;93941.88;5075194;28;20226;-41
2023/07/26 01:57:00;;;;;;;0.30;0.30;;;25.60;61.50;;;26.04;45.48;93939.50;5074430;28;20259;-41
2023/07/26 01:59:27;;;;;;;0.30;0.30;;;25.60;61.40;;;26.05;45.50;93943.78;5073561;28;20323;-41
2023/07/26 02:01:54;;;;;;;0.40;0.40;;;25.50;61.50;;;26.04;45.26;93940.28;5073502;28;20237;-41
2023/07/26 02:04:21;;;;;;;0.35;0.35;;;25.50;61.50;;;26.04;45.15;93950.25;5073404;28;20252;-42
2023/07/26 02:06:48;;;;;;;0.35;0.35;;;25.60;61.50;;;26.03;45.39;93954.81;5073845;28;20198;-41
2023/07/26 02:09:15;;;;;;;0.30;0.30;;;25.50;61.50;;;26.03;45.74;93959.41;5073673;28;20535;-41
2023/07/26 02:11:43;;;;;;;0.30;0.30;;;25.50;61.50;;;26.02;45.45;93966.69;5074139;28;20198;-41
2023/07/26 02:14:10;;;;;;;0.40;0.40;;;25.50;61.50;;;26.02;45.84;93988.19;5074926;28;20214;-41
2023/07/26 02:16:37;;;;;;;0.30;0.30;;;25.60;61.60;;;26.02;45.68;93984.69;5078420;28;20301;-40
2023/07/26 02:19:04;;;;;;;0.40;0.40;;;25.50;61.50;;;26.00;45.28;94003.03;5076914;28;20661;-41
2023/07/26 02:21:31;;;;;;;0.50;0.50;;;25.60;61.50;;;25.99;45.18;94001.47;5060278;28;20193;-40
2023/07/26 02:23:59;;;;;;;0.30;0.30;;;25.50;61.50;;;25.97;45.53;94007.13;5077621;28;20547;-40
2023/07/26 02:26:26;;;;;;;0.32;0.32;;;25.50;61.50;;;25.96;45.35;94013.59;5060442;28;20202;-40
2023/07/26 02:28:53;;;;;;;0.35;0.35;;;25.50;61.50;;;25.95;45.22;94016.59;5076606;28;20264;-40
2023/07/26 02:31:22;;;;;;;0.52;0.52;;;25.50;61.50;;;25.94;45.51;94031.94;5076951;28;20532;-41
2023/07/26 02:33:49;;;;;;;0.40;0.40;;;25.50;61.40;;;25.92;45.93;94039.53;5077115;28;20218;-39
2023/07/26 02:36:16;;;;;;;0.40;0.40;;;25.50;61.50;;;25.92;45.76;94033.38;5077870;28;20196;-42
2023/07/26 02:38:43;;;;;;;0.35;0.35;;;25.50;61.50;;;25.91;45.51;94037.16;5077775;28;20252;-41
2023/07/26 02:41:10;;;;;;;0.30;0.30;;;25.40;61.40;;;25.88;45.88;94038.56;5077714;28;20205;-41
2023/07/26 02:43:38;;;;;;;0.50;0.50;;;25.40;61.50;;;25.87;45.78;94036.97;5076787;28;20535;-40
2023/07/26 02:46:09;;;;;;;0.30;0.30;;;25.50;61.50;;;25.87;45.51;94055.78;5077407;28;20187;-41
2023/07/26 02:48:36;;;;;;;0.40;0.40;;;25.40;61.50;;;25.86;45.77;94046.13;5077404;28;20567;-41
2023/07/26 02:51:03;;;;;;;0.40;0.40;;;25.40;61.50;;;25.84;45.76;94057.19;5077310;28;20249;-40
2023/07/26 02:53:31;;;;;;;0.30;0.30;;;25.40;61.50;;;25.84;45.81;94064.44;5077417;28;20649;-40
2023/07/26 02:55:58;;;;;;;0.30;0.30;;;25.40;61.60;;;25.82;45.48;94069.34;5076297;28;20228;-40
2023/07/26 02:58:25;;;;;;;0.50;0.50;;;25.40;61.70;;;25.81;45.52;94078.50;5077014;28;20188;-41
2023/07/26 03:00:53;;;;;;;0.30;0.30;;;25.30;61.50;;;25.80;45.76;94080.38;5076167;28;20695;-41
2023/07/26 03:03:20;;;;;;;0.40;0.40;;;25.30;61.60;;;25.80;45.68;94084.97;5077136;28;20196;-40
2023/07/26 03:05:48;;;;;;;0.50;0.50;;;25.30;62.60;;;25.79;45.62;94097.59;5077023;28;20221;-40
2023/07/26 03:08:15;;;;;;;0.30;0.30;;;25.40;61.70;;;25.79;45.77;94094.91;5076879;28;20227;-41
2023/07/26 03:10:43;;;;;;;0.50;0.50;;;25.30;61.70;;;25.80;45.95;94093.81;5076018;28;20221;-40
2023/07/26 03:13:10;;;;;;;0.40;0.40;;;25.30;61.70;;;25.80;45.55;94101.09;5076178;28;20204;-40
2023/07/26 03:15:40;;;;;;;0.40;0.40;;;25.30;61.80;;;25.79;45.75;94110.25;5076810;28;20252;-41
2023/07/26 03:18:08;;;;;;;0.30;0.30;;;25.30;61.80;;;25.78;46.04;94111.34;5076939;28;20205;-43
2023/07/26 03:20:35;;;;;;;0.30;0.30;;;25.30;61.80;;;25.78;46.05;94108.66;5077031;28;20255;-43
2023/07/26 03:23:02;;;;;;;0.30;0.30;;;25.30;61.90;;;25.79;45.97;94104.88;5075782;28;20204;-40
2023/07/26 03:25:30;;;;;;;0.55;0.55;;;25.30;61.90;;;25.77;46.10;94099.81;5075165;28;20297;-40
2023/07/26 03:27:58;;;;;;;0.30;0.30;;;25.30;61.90;;;25.78;45.76;94114.03;5075459;28;20206;-41
2023/07/26 03:30:25;;;;;;;0.30;0.30;;;25.30;62.00;;;25.77;46.14;94115.13;5076381;28;20191;-41
2023/07/26 03:32:52;;;;;;;0.40;0.40;;;25.30;61.90;;;25.75;46.15;94122.72;5076758;28;20270;-42
2023/07/26 03:35:19;;;;;;;0.22;0.22;;;25.30;61.90;;;25.73;46.19;94123.81;5075552;28;20225;-40
2023/07/26 03:37:47;;;;;;;0.30;0.30;;;25.30;62.10;;;25.73;46.05;94139.94;5075682;28;20197;-40
2023/07/26 03:40:14;;;;;;;0.40;0.40;;;25.30;62.00;;;25.73;45.82;94139.13;5075283;28;20201;-40
2023/07/26 03:42:42;;;;;;;0.57;0.57;;;25.30;62.00;;;25.72;46.09;94142.94;5059016;28;20206;-40
2023/07/26 03:45:09;;;;;;;0.40;0.40;;;25.30;62.10;;;25.70;46.09;94142.44;5076089;28;20232;-40
2023/07/26 03:47:37;;;;;;;0.30;0.30;;;25.30;62.00;;;25.69;45.94;94141.63;5076474;28;20207;-40
2023/07/26 03:50:05;;;;;;;0.30;0.30;;;25.30;62.00;;;25.69;46.00;94138.94;5076049;28;20200;-40
2023/07/26 03:52:33;;;;;;;0.30;0.30;;;25.20;62.10;;;25.69;46.01;94156.97;5076100;28;20212;-40
2023/07/26 03:55:01;;;;;;;0.30;0.30;;;25.30;62.20;;;25.68;46.22;94147.31;5075021;28;20673;-40
2023/07/26 03:57:29;;;;;;;0.40;0.40;;;25.20;62.10;;;25.69;46.59;94149.69;5076285;28;20194;-40
2023/07/26 03:59:56;;;;;;;0.30;0.30;;;25.30;62.20;;;25.68;46.37;94156.19;5074903;28;20201;-40
2023/07/26 04:02:24;;;;;;;0.40;0.40;;;25.30;62.20;;;25.68;46.23;94169.59;5076144;28;20194;-40
2023/07/26 04:04:52;;;;;;;0.50;0.50;;;25.20;62.20;;;25.68;46.58;94179.53;5076128;28;20297;-40
2023/07/26 04:07:19;;;;;;;0.30;0.30;;;25.20;62.20;;;25.66;46.42;94184.41;5074879;28;20271;-40
2023/07/26 04:09:46;;;;;;;0.30;0.30;;;25.20;62.30;;;25.66;46.55;94185.22;5075717;28;20206;-40
2023/07/26 04:12:14;;;;;;;0.30;0.30;;;25.20;62.30;;;25.66;46.68;94197.84;5074918;28;20195;-40
2023/07/26 04:14:42;;;;;;;0.30;0.30;;;25.20;63.20;;;25.66;46.49;94203.22;5075864;28;20221;-40
2023/07/26 04:17:09;;;;;;;0.30;0.30;;;25.20;62.30;;;25.65;46.35;94210.50;5075023;28;20209;-40
2023/07/26 04:19:36;;;;;;;0.30;0.30;;;25.20;62.30;;;25.64;46.72;94211.59;5075732;28;20192;-40
2023/07/26 04:22:03;;;;;;;0.30;0.30;;;25.20;62.30;;;25.64;46.66;94210.81;5075779;28;20184;-40
2023/07/26 04:24:30;;;;;;;0.30;0.30;;;25.20;62.20;;;25.62;46.35;94208.44;5075482;28;20198;-40
2023/07/26 04:26:57;;;;;;;0.40;0.40;;;25.20;62.20;;;25.61;46.67;94206.03;5075693;28;20203;-40
2023/07/26 04:29:24;;;;;;;0.30;0.30;;;25.20;62.30;;;25.59;46.65;94203.66;5075540;28;20599;-39
2023/07/26 04:31:52;;;;;;;0.30;0.30;;;25.20;62.30;;;25.60;46.72;94197.19;5074709;28;20202;-40
2023/07/26 04:34:19;;;;;;;0.40;0.40;;;25.20;62.30;;;25.58;46.46;94199.38;5075173;28;20570;-40
2023/07/26 04:36:46;;;;;;;0.30;0.30;;;25.20;62.30;;;25.57;46.42;94193.22;5074499;28;20226;-40
2023/07/26 04:39:13;;;;;;;0.32;0.32;;;25.20;62.40;;;25.57;46.53;94205.84;5075570;28;20249;-40
2023/07/26 04:41:41;;;;;;;0.30;0.30;;;25.20;62.30;;;25.56;46.57;94206.94;5075459;28;20193;-41
2023/07/26 04:44:08;;;;;;;0.50;0.50;;;25.10;62.20;;;25.54;46.86;94207.25;5075039;28;20304;-41
2023/07/26 04:46:35;;;;;;;0.30;0.30;;;25.20;62.30;;;25.54;46.55;94211.84;5075367;28;20265;-40
2023/07/26 04:49:03;;;;;;;0.40;0.40;;;25.10;62.20;;;25.52;46.49;94212.16;5075257;28;20677;-40
2023/07/26 04:51:30;;;;;;;0.30;0.30;;;25.10;62.20;;;25.52;46.82;94227.44;5075378;28;20633;-40
2023/07/26 04:53:59;;;;;;;0.50;0.50;;;25.10;62.20;;;25.51;46.79;94225.84;5075285;28;20579;-40
2023/07/26 04:56:29;;;;;;;0.30;0.30;;;25.10;62.30;;;25.51;46.52;94232.03;5074134;28;20260;-40
2023/07/26 04:58:56;;;;;;;0.30;0.30;;;25.10;62.30;;;25.51;46.56;94229.34;5074097;28;20194;-40
2023/07/26 05:01:23;;;;;;;0.50;0.50;;;25.10;62.40;;;25.50;46.84;94238.50;5057631;28;20194;-40
2023/07/26 05:03:51;;;;;;;0.30;0.30;;;25.10;62.30;;;25.49;46.90;94228.84;5075281;28;20258;-40
2023/07/26 05:06:18;;;;;;;0.30;0.30;;;25.10;62.30;;;25.49;46.58;94228.06;5074115;28;20634;-40
2023/07/26 05:08:47;;;;;;;0.40;0.40;;;25.10;62.30;;;25.47;46.94;94225.66;5075184;28;20300;-40
2023/07/26 05:11:14;;;;;;;0.50;0.50;;;25.10;62.30;;;25.47;46.77;94214.16;5075469;28;20198;-40
2023/07/26 05:13:41;;;;;;;0.40;0.40;;;25.00;62.50;;;25.47;46.56;94220.28;5074871;28;20226;-40
2023/07/26 05:16:09;;;;;;;0.35;0.35;;;25.10;62.50;;;25.47;46.70;94227.56;5074834;28;20224;-40
2023/07/26 05:18:36;;;;;;;0.50;0.50;;;25.00;62.50;;;25.45;46.66;94240.50;5074265;28;20190;-40
2023/07/26 05:21:04;;;;;;;0.40;0.40;;;25.00;62.30;;;25.46;46.75;94253.59;5074683;28;20198;-40
2023/07/26 05:23:31;;;;;;;0.30;0.30;;;25.00;63.30;;;25.44;46.87;94258.50;5074467;28;20249;-40
2023/07/26 05:25:58;;;;;;;0.38;0.38;;;25.00;62.50;;;25.44;46.63;94263.88;5074225;28;20195;-40
2023/07/26 05:28:25;;;;;;;0.40;0.40;;;25.10;62.40;;;25.42;46.86;94269.53;5075027;28;20256;-40
2023/07/26 05:30:56;;;;;;;0.30;0.30;;;25.00;62.40;;;25.42;46.89;94268.75;5074661;28;20224;-40
2023/07/26 05:33:23;;;;;;;0.30;0.30;;;25.00;62.30;;;25.40;46.46;94277.09;5074991;28;20245;-41
2023/07/26 05:35:51;;;;;;;0.40;0.40;;;25.00;62.30;;;25.40;46.83;94273.59;5075142;28;20600;-40
2023/07/26 05:38:18;;;;;;;0.50;0.50;;;25.00;62.40;;;25.39;46.76;94262.09;5090807;28;20251;-40
2023/07/26 05:40:45;;;;;;;0.28;0.28;;;25.00;62.50;;;25.39;46.71;94269.34;5074448;28;20225;-40
2023/07/26 05:43:12;;;;;;;0.30;0.30;;;25.00;62.40;;;25.38;46.86;94278.50;5074246;28;20194;-40
2023/07/26 05:45:42;;;;;;;0.30;0.30;;;25.00;62.50;;;25.38;46.56;94267.75;5074795;28;20433;-40
2023/07/26 05:48:09;;;;;;;0.50;0.50;;;25.00;62.30;;;25.37;46.52;94266.97;5074762;28;20227;-40
2023/07/26 05:50:36;;;;;;;0.30;0.30;;;25.00;62.40;;;25.36;46.94;94270.69;5076552;28;20212;-40
2023/07/26 05:53:03;;;;;;;0.30;0.30;;;25.00;62.40;;;25.35;46.52;94279.88;5077586;28;20199;-40
2023/07/26 05:55:31;;;;;;;0.40;0.40;;;25.00;62.40;;;25.34;46.85;94280.16;5078462;28;20293;-40
2023/07/26 05:57:58;;;;;;;0.40;0.40;;;24.90;62.40;;;25.34;46.82;94283.66;5077705;28;20201;-40
2023/07/26 06:00:26;;;;;;;0.40;0.40;;;25.00;62.50;;;25.32;46.60;94291.19;5078183;28;20192;-40
2023/07/26 06:02:53;;;;;;;0.40;0.40;;;24.90;62.30;;;25.33;46.71;94295.47;5077337;28;20190;-40
2023/07/26 06:05:20;;;;;;;0.40;0.40;;;24.90;62.40;;;25.33;46.77;94294.66;5077824;28;20202;-40
2023/07/26 06:07:49;;;;;;;0.35;0.35;;;24.90;62.40;;;25.32;46.90;94309.22;5078110;28;20256;-40
2023/07/26 06:10:17;;;;;;;0.30;0.30;;;24.90;62.40;;;25.32;46.85;94301.16;5076971;28;20302;-40
2023/07/26 06:12:44;;;;;;;0.30;0.30;;;24.90;62.50;;;25.31;46.48;94303.03;5078838;28;20194;-40
2023/07/26 06:15:11;;;;;;;0.30;0.30;;;24.90;62.50;;;25.29;46.84;94312.47;5077925;28;20213;-40
2023/07/26 06:17:39;;;;;;;0.40;0.40;;;24.90;62.50;;;25.28;47.06;94308.19;5077947;28;20254;-39
2023/07/26 06:20:07;;;;;;;0.30;0.30;;;24.90;62.50;;;25.27;47.07;94310.09;5078300;28;20259;-40
2023/07/26 06:22:34;;;;;;;0.40;0.40;;;24.90;62.30;;;25.25;46.97;94310.41;5077836;28;20246;-40
2023/07/26 06:25:02;;;;;;;0.30;0.30;;;24.90;62.50;;;25.25;46.87;94318.47;5076839;28;20210;-40
2023/07/26 06:27:30;;;;;;;0.30;0.30;;;24.90;62.50;;;25.26;46.65;94311.19;5076901;28;20185;-40
2023/07/26 06:29:57;;;;;;;0.30;0.30;;;24.90;62.50;;;25.26;46.66;94324.59;5077829;28;20198;-40
2023/07/26 06:32:25;;;;;;;0.30;0.30;;;24.90;62.50;;;25.25;46.81;94312.28;5077965;28;20288;-40
2023/07/26 06:34:52;;;;;;;0.32;0.32;;;24.90;62.50;;;25.25;46.94;94317.66;5077843;28;20555;-42
2023/07/26 06:37:19;;;;;;;0.40;0.40;;;24.90;62.50;;;25.24;46.73;94318.75;5076756;28;20283;-40
2023/07/26 06:39:46;;;;;;;0.30;0.30;;;24.90;62.50;;;25.23;46.75;94319.81;5076550;28;20191;-40
2023/07/26 06:42:13;;;;;;;0.30;0.30;;;24.90;62.60;;;25.22;47.11;94319.03;5077501;28;20202;-40
2023/07/26 06:44:41;;;;;;;0.30;0.30;;;24.90;62.60;;;25.22;46.92;94324.41;5077493;28;20252;-40
2023/07/26 06:47:08;;;;;;;0.40;0.40;;;24.90;62.60;;;25.22;46.95;94326.31;5076500;28;20210;-40
2023/07/26 06:49:35;;;;;;;0.30;0.30;;;24.90;62.50;;;25.21;46.97;94322.03;5076547;28;20202;-40
2023/07/26 06:52:03;;;;;;;0.38;0.38;;;24.80;62.50;;;25.22;46.95;94326.31;5077349;28;20224;-40
2023/07/26 06:54:31;;;;;;;0.50;0.50;;;24.80;62.60;;;25.21;47.12;94330.88;5077862;28;20584;-41
2023/07/26 06:56:58;;;;;;;0.30;0.30;;;24.90;62.70;;;25.22;46.93;94335.16;5077157;28;20212;-40
2023/07/26 06:59:25;;;;;;;0.50;0.50;;;24.90;62.70;;;25.21;47.13;94340.81;5077507;28;20246;-40
2023/07/26 07:01:52;;;;;;;0.32;0.32;;;24.80;62.70;;;25.22;46.92;94353.16;5074963;28;20202;-40
2023/07/26 07:04:20;;;;;;;0.40;0.40;;;24.90;62.60;;;25.22;46.83;94359.31;5060030;28;20198;-40
2023/07/26 07:06:47;;;;;;;0.40;0.40;;;24.80;62.60;;;25.21;47.17;94363.06;5077101;28;20696;-40
2023/07/26 07:09:15;;;;;;;0.38;0.38;;;24.90;62.60;;;25.21;46.87;94371.13;5077493;28;20294;-40
2023/07/26 07:11:42;;;;;;;0.40;0.40;;;24.80;62.60;;;25.21;47.26;94368.44;5076934;28;20228;-40
2023/07/26 07:14:09;;;;;;;0.40;0.40;;;24.90;62.70;;;25.21;46.83;94365.75;5077745;28;20514;-40
2023/07/26 07:16:38;;;;;;;0.32;0.32;;;24.90;62.60;;;25.22;46.93;94361.22;5077019;28;20738;-41
2023/07/26 07:19:06;;;;;;;0.30;0.30;;;24.80;62.50;;;25.21;47.04;94360.38;5077133;28;20203;-40
2023/07/26 07:21:33;;;;;;;0.40;0.40;;;24.90;62.60;;;25.21;47.00;94364.97;5076740;28;20201;-40
2023/07/26 07:24:01;;;;;;;0.40;0.40;;;24.90;62.70;;;25.20;47.14;94366.84;5076977;28;20198;-40
2023/07/26 07:26:28;;;;;;;0.30;0.30;;;24.90;62.70;;;25.20;47.19;94368.75;5076944;28;20240;-40
2023/07/26 07:28:55;;;;;;;0.40;0.40;;;24.90;62.60;;;25.20;46.96;94377.59;5059400;28;20247;-40
2023/07/26 07:31:23;;;;;;;0.30;0.30;;;24.90;62.70;;;25.20;47.19;94374.91;5076849;28;20532;-40
2023/07/26 07:33:50;;;;;;;0.30;0.30;;;24.80;62.60;;;25.20;46.79;94377.59;5076493;28;20198;-40
2023/07/26 07:36:20;;;;;;;0.32;0.32;;;24.90;62.70;;;25.21;47.15;94379.19;5076410;28;20206;-40
2023/07/26 07:38:47;;;;;;;0.50;0.50;;;24.90;62.60;;;25.22;46.77;94380.78;5076935;28;20185;-40
2023/07/26 07:41:14;;;;;;;0.38;0.38;;;24.90;62.70;;;25.23;47.22;94385.06;5075397;28;20194;-40
2023/07/26 07:43:42;;;;;;;0.30;0.30;;;24.90;62.70;;;25.24;47.28;94393.88;5076312;28;20530;-40
2023/07/26 07:46:09;;;;;;;0.35;0.35;;;24.90;62.60;;;25.25;47.03;94377.50;5076787;28;20204;-39
2023/07/26 07:48:37;;;;;;;0.40;0.40;;;24.90;62.80;;;25.26;47.09;94384.44;5076511;28;20535;-40
2023/07/26 07:51:04;;;;;;;0.60;0.60;;;24.90;62.80;;;25.29;47.23;94388.41;5076722;28;20327;-40
2023/07/26 07:53:31;;;;;;;0.40;0.40;;;24.90;62.80;;;25.31;47.35;94380.09;5076098;28;20213;-40
2023/07/26 07:55:58;;;;;;;0.30;0.30;;;24.90;62.80;;;25.32;47.14;94379.78;5076553;28;20210;-40
2023/07/26 07:58:26;;;;;;;0.30;0.30;;;24.90;62.70;;;25.34;47.12;94376.78;5076151;28;20260;-40
2023/07/26 08:00:59;;;;;;;0.40;0.40;;;24.90;62.70;;;25.35;46.87;94381.06;5076309;28;20285;-40
2023/07/26 08:03:29;;;;;;;0.30;0.30;;;24.90;62.70;;;25.36;46.98;94378.06;5075985;28;20190;-40
2023/07/26 08:05:56;;;;;;;0.50;0.50;;;25.00;62.70;;;25.38;46.93;94383.19;5075788;28;20561;-37
2023/07/26 08:08:23;;;;;;;0.60;0.60;;;25.00;62.70;;;25.39;47.30;94387.47;5075106;28;20308;-37
2023/07/26 08:10:50;;;;;;;0.40;0.40;;;25.00;62.60;;;25.38;46.91;94386.66;5078057;28;20630;-37
2023/07/26 08:13:17;;;;;;;0.35;0.35;;;25.00;62.60;;;25.38;46.65;94391.25;5078570;28;20236;-37
2023/07/26 08:15:45;;;;;;;0.40;0.40;;;25.00;62.50;;;25.36;46.59;94402.25;5078581;28;20305;-37
2023/07/26 08:18:12;;;;;;;0.40;0.40;;;25.00;62.40;;;25.36;47.10;94401.47;5078621;28;20220;-38
2023/07/26 08:20:39;;;;;;;0.60;0.60;;;25.00;62.30;;;25.34;46.56;94400.94;5078971;28;20198;-37
2023/07/26 08:23:06;;;;;;;0.60;0.60;;;25.00;62.50;;;25.33;46.80;94407.41;5078391;28;20571;-37
2023/07/26 08:25:34;;;;;;;0.40;0.40;;;24.90;63.30;;;25.32;46.95;94403.16;5077828;28;20242;-38
2023/07/26 08:28:01;;;;;;;0.30;0.30;;;24.90;62.40;;;25.31;46.75;94406.94;5075692;28;20233;-38
2023/07/26 08:30:29;;;;;;;0.30;0.30;;;24.90;62.40;;;25.29;46.75;94406.41;5075263;28;20201;-38
2023/07/26 08:32:56;;;;;;;0.50;0.50;;;24.90;62.50;;;25.28;46.83;94413.69;5076079;28;20201;-38
2023/07/26 08:35:24;;;;;;;0.55;0.55;;;24.90;62.40;;;25.28;47.08;94415.56;5074545;28;20214;-38
2023/07/26 08:37:51;;;;;;;0.30;0.30;;;24.90;62.50;;;25.29;47.10;94417.94;5075487;28;20572;-38
2023/07/26 08:40:20;;;;;;;0.30;0.30;;;24.90;62.60;;;25.30;46.83;94422.22;5074772;28;20221;-38
2023/07/26 08:42:47;;;;;;;0.50;0.50;;;24.90;62.70;;;25.33;47.20;94415.47;5075689;28;20570;-37
2023/07/26 08:45:16;;;;;;;0.35;0.35;;;24.90;62.70;;;25.34;47.24;94422.44;5075638;28;20305;-38
2023/07/26 08:47:44;;;;;;;0.30;0.30;;;24.90;62.80;;;25.36;47.25;94409.50;5075706;28;20193;-38
2023/07/26 08:50:11;;;;;;;0.30;0.30;;;24.90;62.70;;;25.37;47.21;94403.88;5074547;28;20203;-38
2023/07/26 08:52:39;;;;;;;0.30;0.30;;;24.90;62.70;;;25.39;46.97;94414.31;5075388;28;20193;-37
2023/07/26 08:55:09;;;;;;;0.30;0.30;;;25.00;62.80;;;25.39;47.09;94420.47;5058826;28;20233;-37
2023/07/26 08:57:36;;;;;;;0.30;0.30;;;25.00;62.60;;;25.41;46.88;94422.84;5075733;28;20634;-38
2023/07/26 09:00:07;;;;;;;0.30;0.30;;;25.00;62.70;;;25.42;47.23;94427.13;5075916;28;20194;-38
2023/07/26 09:02:36;;;;;;;0.30;0.30;;;25.00;62.70;;;25.43;46.81;94431.41;5075385;28;20219;-39
2023/07/26 09:05:04;;;;;;;0.30;0.30;;;25.00;62.70;;;25.45;47.12;94434.63;5075334;28;20652;-38
2023/07/26 09:07:32;;;;;;;0.30;0.30;;;25.00;62.60;;;25.46;47.01;94438.88;5076402;28;20223;-37
2023/07/26 09:10:00;;;;;;;0.30;0.30;;;25.00;62.60;;;25.46;46.76;94432.72;5058584;28;20273;-39
2023/07/26 09:12:28;;;;;;;0.40;0.40;;;25.00;62.50;;;25.46;46.75;94436.19;5075817;28;20225;-40
2023/07/26 09:15:05;;;;;;;0.30;0.30;;;25.00;62.50;;;25.48;46.95;94444.75;5075794;28;20262;-37
2023/07/26 09:17:41;;;;;;;0.30;0.30;;;25.10;62.50;;;25.48;46.81;94447.44;5075547;28;20295;-37
2023/07/26 09:20:25;;;;;;;0.30;0.30;;;25.10;62.50;;;25.48;46.61;94444.75;5076848;28;20267;-37
2023/07/26 09:23:04;;;;;;;0.30;0.30;;;25.10;62.50;;;25.48;47.02;94444.75;5076497;28;20246;-37
2023/07/26 09:25:40;;;;;;;0.30;0.30;;;25.10;62.50;;;25.50;47.01;94444.44;5079541;28;20181;-37
2023/07/26 09:28:12;;;;;;;0.40;0.40;;;25.10;62.60;;;25.51;47.00;94440.66;5079482;28;20192;-37
2023/07/26 09:30:45;;;;;;;0.30;0.30;;;25.10;62.70;;;25.52;46.90;94439.56;5080557;28;20599;-37
2023/07/26 09:33:12;;;;;;;0.30;0.30;;;25.10;62.80;;;25.53;47.25;94441.94;5080592;28;20183;-37
2023/07/26 09:35:52;;;;;;;0.30;0.30;;;25.10;62.70;;;25.55;47.25;94442.47;5079192;28;20229;-37
2023/07/26 09:38:25;;;;;;;0.30;0.30;;;25.10;62.80;;;25.55;46.98;94436.31;5080599;28;20275;-37
2023/07/26 09:40:52;;;;;;;0.50;0.50;;;25.10;62.80;;;25.57;47.37;94442.16;5080439;28;20184;-37
2023/07/26 09:43:32;;;;;;;0.40;0.40;;;25.20;62.90;;;25.58;47.39;94433.00;5080004;28;20641;-37
2023/07/26 09:46:02;;;;;;;0.30;0.30;;;25.20;62.70;;;25.60;46.82;94432.69;5079200;28;20556;-37
2023/07/26 09:48:33;;;;;;;0.40;0.40;;;25.20;62.70;;;25.60;47.03;94436.19;5080060;28;20195;-36
2023/07/26 09:51:05;;;;;;;0.30;0.30;;;25.20;62.60;;;25.61;47.04;94434.28;5079993;28;20651;-37
2023/07/26 09:53:37;;;;;;;0.30;0.30;;;25.20;62.30;;;25.61;46.73;94434.28;5079443;28;20204;-37
2023/07/26 09:56:04;;;;;;;0.40;0.40;;;25.20;62.30;;;25.61;46.53;94443.16;5079842;28;20223;-37
2023/07/26 09:58:35;;;;;;;0.40;0.40;;;25.20;62.30;;;25.61;46.78;94442.34;5079010;28;20195;-37
2023/07/26 10:01:04;;;;;;;0.50;0.50;;;25.30;62.20;;;25.61;46.57;94434.28;5078812;28;20176;-37
2023/07/26 10:03:35;;;;;;;0.32;0.32;;;25.20;62.20;;;25.64;46.26;94439.09;5078774;28;20197;-36
2023/07/26 10:06:03;;;;;;;0.30;0.30;;;25.20;62.10;;;25.64;46.78;94439.88;5079532;28;20544;-37
2023/07/26 10:08:31;;;;;;;0.30;0.30;;;25.20;62.10;;;25.64;46.63;94439.88;5079348;28;20204;-37
2023/07/26 10:11:00;;;;;;;0.30;0.30;;;25.20;62.00;;;25.65;46.39;94454.88;5078948;28;20199;-37
2023/07/26 10:13:28;;;;;;;0.30;0.30;;;25.30;62.20;;;25.67;46.74;94459.97;5078409;28;20305;-37
2023/07/26 10:15:58;;;;;;;0.30;0.30;;;25.30;62.10;;;25.68;46.29;94457.00;5078528;28;20219;-37
2023/07/26 10:18:28;;;;;;;0.30;0.30;;;25.30;62.00;;;25.68;46.39;94465.06;5078558;28;20177;-37
2023/07/26 10:20:58;;;;;;;0.50;0.50;;;25.30;61.90;;;25.68;46.20;94465.06;5079275;28;20194;-36
2023/07/26 10:23:25;;;;;;;0.40;0.40;;;25.30;61.90;;;25.70;45.92;94473.59;5062073;28;20192;-37